RYR93DE GCFV-EGCC
Flight info
| Callsign | RYR93DE |
|---|---|
| Flight time | 3h 24m |
| Altitude | 36000 |
| Route | VASTO DCT NIDEB DCT TIGGI DCT DEMOS DCT SOSOV DCT AMPOP DCT SIDDI DCT EPACE DCT ACCOP P16 AXCIS |
| Aircraft | B738/M-SDE2E3FGHIRWXY/LB1 |
Departure
| Time | 2026-05-08 12:59 |
|---|---|
| Airport | Fuerteventura Airport (GCFV) |
Arrival
| Time | 2026-05-08 16:23 |
|---|---|
| Airport | Manchester Airport (EGCC) |
| Time | Latitude | Longitude | Altitude | Speed | Heading |
|---|---|---|---|---|---|
| 2026-05-08 12:45 | 28.45607 | -13.86823 | 98 ft | 0 kts | 271° |
| 2026-05-08 12:52 | 28.45607 | -13.86807 | 98 ft | 4 kts | 271° |
| 2026-05-08 12:52 | 28.45606 | -13.86781 | 99 ft | 2 kts | 271° |
| 2026-05-08 12:53 | 28.45609 | -13.86753 | 101 ft | 4 kts | 243° |
| 2026-05-08 12:53 | 28.45625 | -13.86732 | 98 ft | 4 kts | 203° |
| 2026-05-08 12:53 | 28.45642 | -13.86727 | 98 ft | 0 kts | 181° |
| 2026-05-08 12:55 | 28.45630 | -13.86727 | 98 ft | 5 kts | 181° |
| 2026-05-08 12:55 | 28.45548 | -13.86730 | 98 ft | 18 kts | 181° |
| 2026-05-08 12:55 | 28.45380 | -13.86735 | 100 ft | 29 kts | 181° |
| 2026-05-08 12:56 | 28.45162 | -13.86743 | 99 ft | 32 kts | 181° |
| 2026-05-08 12:56 | 28.44937 | -13.86750 | 98 ft | 27 kts | 181° |
| 2026-05-08 12:56 | 28.44857 | -13.86663 | 96 ft | 19 kts | 91° |
| 2026-05-08 12:56 | 28.44787 | -13.86586 | 83 ft | 19 kts | 182° |
| 2026-05-08 12:57 | 28.44621 | -13.86592 | 73 ft | 28 kts | 181° |
| 2026-05-08 12:57 | 28.44387 | -13.86599 | 63 ft | 39 kts | 182° |
| 2026-05-08 12:57 | 28.44091 | -13.86609 | 55 ft | 45 kts | 181° |
| 2026-05-08 12:57 | 28.43776 | -13.86618 | 43 ft | 47 kts | 182° |
| 2026-05-08 12:58 | 28.43451 | -13.86629 | 36 ft | 44 kts | 181° |
| 2026-05-08 12:58 | 28.43252 | -13.86591 | 31 ft | 24 kts | 108° |
| 2026-05-08 12:58 | 28.43324 | -13.86442 | 33 ft | 23 kts | 15° |
| 2026-05-08 12:58 | 28.43640 | -13.86430 | 31 ft | 85 kts | 2° |
| 2026-05-08 12:59 | 28.44486 | -13.86401 | 56 ft | 155 kts | 2° |
| 2026-05-08 12:59 | 28.45618 | -13.86312 | 843 ft | 167 kts | 2° |
| 2026-05-08 12:59 | 28.46862 | -13.86181 | 1615 ft | 191 kts | 1° |
| 2026-05-08 12:59 | 28.48191 | -13.85970 | 2488 ft | 206 kts | 15° |
| 2026-05-08 13:00 | 28.49387 | -13.84897 | 2818 ft | 240 kts | 58° |
| 2026-05-08 13:00 | 28.50050 | -13.83088 | 3333 ft | 254 kts | 58° |
| 2026-05-08 13:00 | 28.51348 | -13.81748 | 3841 ft | 261 kts | 19° |
| 2026-05-08 13:00 | 28.53111 | -13.81117 | 4552 ft | 270 kts | 15° |
| 2026-05-08 13:01 | 28.54901 | -13.80374 | 5459 ft | 279 kts | 16° |
| 2026-05-08 13:01 | 28.56806 | -13.79989 | 6403 ft | 278 kts | 359° |
| 2026-05-08 13:01 | 28.58756 | -13.79928 | 7326 ft | 283 kts | 357° |
| 2026-05-08 13:01 | 28.60721 | -13.79884 | 8166 ft | 291 kts | 356° |
| 2026-05-08 13:02 | 28.62768 | -13.79828 | 9042 ft | 297 kts | 356° |
| 2026-05-08 13:02 | 28.64855 | -13.79757 | 9929 ft | 304 kts | 356° |
| 2026-05-08 13:02 | 28.67006 | -13.79673 | 10538 ft | 319 kts | 357° |
| 2026-05-08 13:02 | 28.69322 | -13.79577 | 10819 ft | 344 kts | 358° |
| 2026-05-08 13:03 | 28.71748 | -13.79463 | 11503 ft | 353 kts | 358° |
| 2026-05-08 13:03 | 28.74211 | -13.79336 | 12387 ft | 356 kts | 358° |
| 2026-05-08 13:03 | 28.76695 | -13.79203 | 13290 ft | 359 kts | 358° |
| 2026-05-08 13:03 | 28.79176 | -13.79069 | 14128 ft | 364 kts | 358° |
| 2026-05-08 13:04 | 28.81723 | -13.78933 | 14919 ft | 369 kts | 358° |
| 2026-05-08 13:04 | 28.84305 | -13.78794 | 15684 ft | 376 kts | 357° |
| 2026-05-08 13:04 | 28.86935 | -13.78653 | 16509 ft | 381 kts | 357° |
| 2026-05-08 13:04 | 28.89596 | -13.78511 | 17373 ft | 385 kts | 356° |
| 2026-05-08 13:05 | 28.92292 | -13.78368 | 18207 ft | 391 kts | 356° |
| 2026-05-08 13:05 | 28.95028 | -13.78221 | 18909 ft | 396 kts | 356° |
| 2026-05-08 13:05 | 28.97800 | -13.78073 | 19593 ft | 402 kts | 356° |
| 2026-05-08 13:05 | 29.00573 | -13.77925 | 20274 ft | 407 kts | 355° |
| 2026-05-08 13:06 | 29.03416 | -13.77773 | 20942 ft | 412 kts | 355° |
| 2026-05-08 13:06 | 29.06296 | -13.77618 | 21587 ft | 417 kts | 355° |
| 2026-05-08 13:06 | 29.09213 | -13.77462 | 22218 ft | 422 kts | 355° |
| 2026-05-08 13:06 | 29.12158 | -13.77303 | 22879 ft | 427 kts | 354° |
| 2026-05-08 13:07 | 29.15156 | -13.77143 | 23468 ft | 433 kts | 354° |
| 2026-05-08 13:07 | 29.18178 | -13.76980 | 23995 ft | 438 kts | 354° |
| 2026-05-08 13:07 | 29.21227 | -13.76813 | 24569 ft | 440 kts | 354° |
| 2026-05-08 13:07 | 29.24289 | -13.76645 | 25157 ft | 441 kts | 354° |
| 2026-05-08 13:08 | 29.27324 | -13.76480 | 25707 ft | 444 kts | 354° |
| 2026-05-08 13:08 | 29.30423 | -13.76313 | 26181 ft | 448 kts | 354° |
| 2026-05-08 13:08 | 29.33556 | -13.76146 | 26639 ft | 453 kts | 354° |
| 2026-05-08 13:08 | 29.36718 | -13.75924 | 27127 ft | 459 kts | 356° |
| 2026-05-08 13:09 | 29.39908 | -13.75505 | 27671 ft | 464 kts | 359° |
| 2026-05-08 13:09 | 29.43125 | -13.74977 | 28086 ft | 470 kts | 0° |
| 2026-05-08 13:09 | 29.46372 | -13.74405 | 28519 ft | 474 kts | 0° |
| 2026-05-08 13:09 | 29.49638 | -13.73828 | 28997 ft | 476 kts | 0° |
| 2026-05-08 13:10 | 29.52876 | -13.73267 | 29465 ft | 478 kts | 360° |
| 2026-05-08 13:10 | 29.56175 | -13.72712 | 29913 ft | 480 kts | 360° |
| 2026-05-08 13:10 | 29.59494 | -13.72167 | 30292 ft | 483 kts | 359° |
| 2026-05-08 13:10 | 29.62830 | -13.71626 | 30660 ft | 485 kts | 359° |
| 2026-05-08 13:11 | 29.66180 | -13.71087 | 31034 ft | 487 kts | 359° |
| 2026-05-08 13:11 | 29.69533 | -13.70547 | 31453 ft | 488 kts | 359° |
| 2026-05-08 13:11 | 29.72905 | -13.70004 | 31831 ft | 489 kts | 359° |
| 2026-05-08 13:11 | 29.76271 | -13.69459 | 32353 ft | 487 kts | 359° |
| 2026-05-08 13:12 | 29.79611 | -13.68915 | 32940 ft | 483 kts | 359° |
| 2026-05-08 13:12 | 29.82880 | -13.68382 | 33494 ft | 479 kts | 358° |
| 2026-05-08 13:12 | 29.86178 | -13.67847 | 33984 ft | 478 kts | 358° |
| 2026-05-08 13:12 | 29.89468 | -13.67315 | 34363 ft | 477 kts | 358° |
| 2026-05-08 13:13 | 29.92756 | -13.66784 | 34734 ft | 477 kts | 358° |
| 2026-05-08 13:13 | 29.96040 | -13.66252 | 35131 ft | 476 kts | 358° |
| 2026-05-08 13:13 | 29.99305 | -13.65722 | 35526 ft | 474 kts | 358° |
| 2026-05-08 13:13 | 30.02575 | -13.65191 | 35912 ft | 473 kts | 358° |
| 2026-05-08 13:14 | 30.09184 | -13.64128 | 36000 ft | 488 kts | 358° |
| 2026-05-08 13:14 | 30.15917 | -13.62468 | 35982 ft | 513 kts | 11° |
| 2026-05-08 13:15 | 30.22617 | -13.59536 | 35979 ft | 516 kts | 13° |
| 2026-05-08 13:15 | 30.29316 | -13.56518 | 35984 ft | 517 kts | 12° |
| 2026-05-08 13:16 | 30.36039 | -13.53549 | 35980 ft | 517 kts | 12° |
| 2026-05-08 13:16 | 30.42722 | -13.50641 | 35973 ft | 516 kts | 12° |
| 2026-05-08 13:17 | 30.49448 | -13.47725 | 35969 ft | 516 kts | 12° |
| 2026-05-08 13:17 | 30.56178 | -13.44802 | 36011 ft | 517 kts | 12° |
| 2026-05-08 13:18 | 30.62925 | -13.41864 | 35978 ft | 518 kts | 12° |
| 2026-05-08 13:18 | 30.69632 | -13.38937 | 35970 ft | 518 kts | 12° |
| 2026-05-08 13:19 | 30.76375 | -13.35988 | 35967 ft | 518 kts | 12° |
| 2026-05-08 13:19 | 30.83121 | -13.33033 | 36022 ft | 518 kts | 12° |
| 2026-05-08 13:20 | 30.89880 | -13.30072 | 35970 ft | 519 kts | 12° |
| 2026-05-08 13:20 | 30.96601 | -13.27121 | 35961 ft | 520 kts | 12° |
| 2026-05-08 13:21 | 31.03367 | -13.24144 | 35959 ft | 520 kts | 12° |
| 2026-05-08 13:21 | 31.10133 | -13.21164 | 35956 ft | 520 kts | 12° |
| 2026-05-08 13:22 | 31.16905 | -13.18178 | 35974 ft | 521 kts | 11° |
| 2026-05-08 13:22 | 31.23687 | -13.15182 | 35957 ft | 522 kts | 11° |
| 2026-05-08 13:23 | 31.30433 | -13.12196 | 35932 ft | 522 kts | 12° |
| 2026-05-08 13:23 | 31.37231 | -13.09184 | 35947 ft | 523 kts | 12° |
| 2026-05-08 13:24 | 31.44043 | -13.06162 | 35959 ft | 525 kts | 12° |
| 2026-05-08 13:24 | 31.50832 | -13.03145 | 35950 ft | 526 kts | 12° |
| 2026-05-08 13:25 | 31.57673 | -13.00098 | 35938 ft | 526 kts | 12° |
| 2026-05-08 13:25 | 31.64509 | -12.97049 | 35940 ft | 526 kts | 12° |
| 2026-05-08 13:26 | 31.71363 | -12.93988 | 35966 ft | 527 kts | 12° |
| 2026-05-08 13:26 | 31.78220 | -12.90921 | 35943 ft | 528 kts | 12° |
| 2026-05-08 13:27 | 31.85041 | -12.87865 | 35931 ft | 528 kts | 12° |
| 2026-05-08 13:27 | 31.91907 | -12.84783 | 35936 ft | 528 kts | 12° |
| 2026-05-08 13:28 | 31.98773 | -12.81696 | 35978 ft | 529 kts | 12° |
| 2026-05-08 13:28 | 32.05662 | -12.78597 | 35931 ft | 530 kts | 12° |
| 2026-05-08 13:29 | 32.12508 | -12.75509 | 35913 ft | 530 kts | 12° |
| 2026-05-08 13:29 | 32.19404 | -12.72393 | 35916 ft | 531 kts | 12° |
| 2026-05-08 13:30 | 32.26299 | -12.69275 | 35981 ft | 532 kts | 12° |
| 2026-05-08 13:30 | 32.33231 | -12.66136 | 35920 ft | 534 kts | 12° |
| 2026-05-08 13:31 | 32.40175 | -12.62983 | 35919 ft | 535 kts | 12° |
| 2026-05-08 13:31 | 32.47077 | -12.59844 | 35919 ft | 535 kts | 12° |
| 2026-05-08 13:32 | 32.54025 | -12.56679 | 35933 ft | 535 kts | 12° |
| 2026-05-08 13:32 | 32.60996 | -12.53502 | 35917 ft | 537 kts | 12° |
| 2026-05-08 13:33 | 32.67977 | -12.50312 | 35904 ft | 538 kts | 12° |
| 2026-05-08 13:33 | 32.74918 | -12.47134 | 35902 ft | 538 kts | 12° |
| 2026-05-08 13:34 | 32.81898 | -12.43934 | 35900 ft | 538 kts | 12° |
| 2026-05-08 13:34 | 32.88886 | -12.40724 | 35876 ft | 538 kts | 12° |
| 2026-05-08 13:35 | 32.95870 | -12.37511 | 35886 ft | 538 kts | 13° |
| 2026-05-08 13:35 | 33.02855 | -12.34293 | 35899 ft | 538 kts | 13° |
| 2026-05-08 13:36 | 33.09800 | -12.31089 | 35941 ft | 540 kts | 13° |
| 2026-05-08 13:36 | 33.16826 | -12.27843 | 35902 ft | 542 kts | 13° |
| 2026-05-08 13:37 | 33.23856 | -12.24586 | 35896 ft | 543 kts | 13° |
| 2026-05-08 13:37 | 33.30900 | -12.21317 | 35885 ft | 543 kts | 13° |
| 2026-05-08 13:38 | 33.37902 | -12.18062 | 35927 ft | 545 kts | 13° |
| 2026-05-08 13:38 | 33.44982 | -12.14768 | 35892 ft | 546 kts | 13° |
| 2026-05-08 13:39 | 33.52079 | -12.11458 | 35879 ft | 547 kts | 13° |
| 2026-05-08 13:39 | 33.59170 | -12.08144 | 35876 ft | 548 kts | 13° |
| 2026-05-08 13:40 | 33.66228 | -12.04840 | 35888 ft | 549 kts | 13° |
| 2026-05-08 13:40 | 33.73353 | -12.01500 | 35874 ft | 550 kts | 13° |
| 2026-05-08 13:41 | 33.80485 | -11.98150 | 35878 ft | 550 kts | 13° |
| 2026-05-08 13:41 | 33.87620 | -11.94792 | 35871 ft | 551 kts | 13° |
| 2026-05-08 13:42 | 33.94759 | -11.91427 | 35876 ft | 553 kts | 13° |
| 2026-05-08 13:42 | 34.01873 | -11.88068 | 35874 ft | 553 kts | 14° |
| 2026-05-08 13:43 | 34.09038 | -11.84677 | 35862 ft | 553 kts | 14° |
| 2026-05-08 13:43 | 34.16204 | -11.81280 | 35867 ft | 553 kts | 14° |
| 2026-05-08 13:44 | 34.23383 | -11.77873 | 35865 ft | 555 kts | 14° |
| 2026-05-08 13:44 | 34.30520 | -11.74477 | 35865 ft | 555 kts | 14° |
| 2026-05-08 13:45 | 34.37695 | -11.71057 | 35862 ft | 555 kts | 14° |
| 2026-05-08 13:45 | 34.44883 | -11.67625 | 35904 ft | 554 kts | 14° |
| 2026-05-08 13:46 | 34.52061 | -11.64192 | 35857 ft | 554 kts | 14° |
| 2026-05-08 13:46 | 34.59173 | -11.60783 | 35850 ft | 553 kts | 14° |
| 2026-05-08 13:47 | 34.66333 | -11.57345 | 35858 ft | 553 kts | 14° |
| 2026-05-08 13:47 | 34.73482 | -11.53907 | 35867 ft | 552 kts | 15° |
| 2026-05-08 13:48 | 34.80609 | -11.50471 | 35846 ft | 550 kts | 15° |
| 2026-05-08 13:48 | 34.87656 | -11.47068 | 35848 ft | 548 kts | 15° |
| 2026-05-08 13:49 | 34.94744 | -11.43640 | 35845 ft | 548 kts | 15° |
| 2026-05-08 13:49 | 35.01821 | -11.40212 | 35847 ft | 546 kts | 16° |
| 2026-05-08 13:50 | 35.08872 | -11.36788 | 35840 ft | 544 kts | 16° |
| 2026-05-08 13:50 | 35.15855 | -11.33391 | 35835 ft | 543 kts | 16° |
| 2026-05-08 13:51 | 35.22877 | -11.29970 | 35857 ft | 543 kts | 16° |
| 2026-05-08 13:51 | 35.29910 | -11.26538 | 35846 ft | 545 kts | 16° |
| 2026-05-08 13:52 | 35.36956 | -11.23092 | 35833 ft | 545 kts | 16° |
| 2026-05-08 13:52 | 35.43953 | -11.19662 | 35829 ft | 545 kts | 16° |
| 2026-05-08 13:53 | 35.50996 | -11.16204 | 35836 ft | 545 kts | 16° |
| 2026-05-08 13:53 | 35.58041 | -11.12738 | 35833 ft | 545 kts | 16° |
| 2026-05-08 13:54 | 35.65081 | -11.09268 | 35835 ft | 545 kts | 16° |
| 2026-05-08 13:54 | 35.72127 | -11.05789 | 35831 ft | 546 kts | 16° |
| 2026-05-08 13:55 | 35.79115 | -11.02332 | 35833 ft | 545 kts | 17° |
| 2026-05-08 13:56 | 35.89657 | -10.97102 | 35831 ft | 544 kts | 17° |
| 2026-05-08 13:56 | 35.96686 | -10.93683 | 35791 ft | 540 kts | 12° |
| 2026-05-08 13:57 | 36.03925 | -10.91631 | 35840 ft | 533 kts | 4° |
| 2026-05-08 13:57 | 36.11170 | -10.89983 | 35832 ft | 533 kts | 4° |
| 2026-05-08 13:58 | 36.18457 | -10.88295 | 35825 ft | 534 kts | 4° |
| 2026-05-08 13:58 | 36.25751 | -10.86535 | 35864 ft | 534 kts | 5° |
| 2026-05-08 13:59 | 36.33049 | -10.84743 | 35837 ft | 535 kts | 5° |
| 2026-05-08 13:59 | 36.40299 | -10.82956 | 35830 ft | 535 kts | 5° |
| 2026-05-08 14:00 | 36.47590 | -10.81160 | 35830 ft | 534 kts | 5° |
| 2026-05-08 14:00 | 36.54894 | -10.79361 | 35836 ft | 535 kts | 5° |
| 2026-05-08 14:01 | 36.62183 | -10.77563 | 35826 ft | 534 kts | 5° |
| 2026-05-08 14:01 | 36.69425 | -10.75772 | 35824 ft | 534 kts | 5° |
| 2026-05-08 14:02 | 36.76714 | -10.73967 | 35845 ft | 534 kts | 5° |
| 2026-05-08 14:02 | 36.83995 | -10.72159 | 35825 ft | 533 kts | 5° |
| 2026-05-08 14:03 | 36.91269 | -10.70350 | 35828 ft | 533 kts | 5° |
| 2026-05-08 14:03 | 36.98537 | -10.68539 | 35822 ft | 532 kts | 5° |
| 2026-05-08 14:04 | 37.05745 | -10.66740 | 35833 ft | 532 kts | 6° |
| 2026-05-08 14:04 | 37.12997 | -10.64925 | 35824 ft | 531 kts | 6° |
| 2026-05-08 14:05 | 37.20240 | -10.63110 | 35822 ft | 530 kts | 6° |
| 2026-05-08 14:05 | 37.27483 | -10.61291 | 35835 ft | 532 kts | 6° |
| 2026-05-08 14:06 | 37.34694 | -10.59478 | 35814 ft | 532 kts | 6° |
| 2026-05-08 14:06 | 37.41957 | -10.57646 | 35799 ft | 532 kts | 6° |
| 2026-05-08 14:07 | 37.49195 | -10.55816 | 35838 ft | 530 kts | 6° |
| 2026-05-08 14:07 | 37.56415 | -10.53988 | 35810 ft | 528 kts | 6° |
| 2026-05-08 14:08 | 37.63561 | -10.52175 | 35822 ft | 527 kts | 6° |
| 2026-05-08 14:08 | 37.70745 | -10.50350 | 35805 ft | 527 kts | 6° |
| 2026-05-08 14:09 | 37.77920 | -10.48522 | 35814 ft | 525 kts | 7° |
| 2026-05-08 14:09 | 37.85072 | -10.46697 | 35815 ft | 524 kts | 7° |
| 2026-05-08 14:10 | 37.92162 | -10.44885 | 35814 ft | 523 kts | 7° |
| 2026-05-08 14:10 | 37.99294 | -10.43058 | 35814 ft | 523 kts | 7° |
| 2026-05-08 14:11 | 38.06429 | -10.41228 | 35827 ft | 523 kts | 7° |
| 2026-05-08 14:11 | 38.13568 | -10.39393 | 35829 ft | 524 kts | 7° |
| 2026-05-08 14:12 | 38.20717 | -10.37552 | 35831 ft | 525 kts | 7° |
| 2026-05-08 14:12 | 38.27828 | -10.35717 | 35819 ft | 524 kts | 7° |
| 2026-05-08 14:13 | 38.34972 | -10.33868 | 35816 ft | 523 kts | 7° |
| 2026-05-08 14:13 | 38.42110 | -10.32018 | 35816 ft | 523 kts | 7° |
| 2026-05-08 14:14 | 38.49191 | -10.30179 | 35821 ft | 523 kts | 7° |
| 2026-05-08 14:14 | 38.56320 | -10.28323 | 35815 ft | 523 kts | 7° |
| 2026-05-08 14:15 | 38.63446 | -10.26465 | 35823 ft | 522 kts | 7° |
| 2026-05-08 14:15 | 38.70569 | -10.24604 | 35831 ft | 522 kts | 7° |
| 2026-05-08 14:16 | 38.77636 | -10.22753 | 35817 ft | 522 kts | 7° |
| 2026-05-08 14:16 | 38.84744 | -10.20887 | 35819 ft | 521 kts | 7° |
| 2026-05-08 14:17 | 38.91843 | -10.19022 | 35835 ft | 521 kts | 7° |
| 2026-05-08 14:17 | 38.98942 | -10.17152 | 35820 ft | 521 kts | 7° |
| 2026-05-08 14:18 | 39.05994 | -10.15290 | 35823 ft | 521 kts | 7° |
| 2026-05-08 14:18 | 39.13090 | -10.13412 | 35822 ft | 521 kts | 7° |
| 2026-05-08 14:19 | 39.20178 | -10.11533 | 35827 ft | 519 kts | 8° |
| 2026-05-08 14:19 | 39.27245 | -10.09655 | 35821 ft | 518 kts | 8° |
| 2026-05-08 14:20 | 39.34250 | -10.07790 | 35826 ft | 517 kts | 8° |
| 2026-05-08 14:20 | 39.41285 | -10.05914 | 35831 ft | 516 kts | 8° |
| 2026-05-08 14:21 | 39.48316 | -10.04035 | 35820 ft | 515 kts | 8° |
| 2026-05-08 14:21 | 39.55315 | -10.02160 | 35826 ft | 514 kts | 8° |
| 2026-05-08 14:22 | 39.62313 | -10.00283 | 35837 ft | 513 kts | 8° |
| 2026-05-08 14:22 | 39.69258 | -9.98415 | 35826 ft | 513 kts | 8° |
| 2026-05-08 14:23 | 39.76245 | -9.96532 | 35832 ft | 512 kts | 8° |
| 2026-05-08 14:23 | 39.83219 | -9.94649 | 35844 ft | 512 kts | 8° |
| 2026-05-08 14:24 | 39.90202 | -9.92760 | 35832 ft | 513 kts | 8° |
| 2026-05-08 14:24 | 39.97140 | -9.90878 | 35832 ft | 512 kts | 9° |
| 2026-05-08 14:25 | 40.04123 | -9.88981 | 35832 ft | 512 kts | 9° |
| 2026-05-08 14:25 | 40.11105 | -9.87080 | 35841 ft | 513 kts | 9° |
| 2026-05-08 14:26 | 40.18085 | -9.85175 | 35838 ft | 512 kts | 9° |
| 2026-05-08 14:26 | 40.25019 | -9.83279 | 35823 ft | 512 kts | 8° |
| 2026-05-08 14:27 | 40.31998 | -9.81368 | 35837 ft | 512 kts | 8° |
| 2026-05-08 14:27 | 40.38967 | -9.79454 | 35842 ft | 512 kts | 8° |
| 2026-05-08 14:28 | 40.45955 | -9.77530 | 35841 ft | 513 kts | 8° |
| 2026-05-08 14:28 | 40.52936 | -9.75605 | 35853 ft | 512 kts | 9° |
| 2026-05-08 14:29 | 40.59857 | -9.73692 | 35844 ft | 512 kts | 9° |
| 2026-05-08 14:29 | 40.66827 | -9.71762 | 35847 ft | 511 kts | 9° |
| 2026-05-08 14:30 | 40.73785 | -9.69831 | 35855 ft | 511 kts | 9° |
| 2026-05-08 14:30 | 40.80744 | -9.67895 | 35856 ft | 511 kts | 9° |
| 2026-05-08 14:31 | 40.87649 | -9.65971 | 35854 ft | 511 kts | 9° |
| 2026-05-08 14:31 | 40.94602 | -9.64029 | 35864 ft | 511 kts | 9° |
| 2026-05-08 14:32 | 41.05004 | -9.61115 | 35847 ft | 508 kts | 9° |
| 2026-05-08 14:32 | 41.11868 | -9.59187 | 35853 ft | 507 kts | 9° |
| 2026-05-08 14:33 | 41.18760 | -9.57248 | 35865 ft | 506 kts | 9° |
| 2026-05-08 14:33 | 41.25635 | -9.55309 | 35849 ft | 504 kts | 9° |
| 2026-05-08 14:34 | 41.32490 | -9.53372 | 35862 ft | 503 kts | 9° |
| 2026-05-08 14:34 | 41.39333 | -9.51433 | 35877 ft | 502 kts | 11° |
| 2026-05-08 14:35 | 41.46138 | -9.49500 | 35857 ft | 499 kts | 10° |
| 2026-05-08 14:35 | 41.52873 | -9.47586 | 35860 ft | 497 kts | 11° |
| 2026-05-08 14:36 | 41.59637 | -9.45658 | 35852 ft | 496 kts | 10° |
| 2026-05-08 14:36 | 41.66381 | -9.43732 | 35870 ft | 496 kts | 11° |
| 2026-05-08 14:37 | 41.73137 | -9.41797 | 35868 ft | 497 kts | 11° |
| 2026-05-08 14:37 | 41.79898 | -9.39857 | 35870 ft | 497 kts | 11° |
| 2026-05-08 14:38 | 41.86625 | -9.37923 | 35869 ft | 498 kts | 11° |
| 2026-05-08 14:38 | 41.93400 | -9.35920 | 35867 ft | 499 kts | 14° |
| 2026-05-08 14:39 | 42.00016 | -9.33065 | 35875 ft | 500 kts | 19° |
| 2026-05-08 14:39 | 42.06572 | -9.29906 | 35872 ft | 501 kts | 19° |
| 2026-05-08 14:40 | 42.13097 | -9.26796 | 35871 ft | 501 kts | 19° |
| 2026-05-08 14:40 | 42.19682 | -9.23727 | 35870 ft | 501 kts | 18° |
| 2026-05-08 14:41 | 42.26273 | -9.20681 | 35875 ft | 500 kts | 18° |
| 2026-05-08 14:41 | 42.32855 | -9.17635 | 35868 ft | 500 kts | 18° |
| 2026-05-08 14:42 | 42.39428 | -9.14583 | 35865 ft | 499 kts | 18° |
| 2026-05-08 14:42 | 42.45938 | -9.11549 | 35864 ft | 499 kts | 18° |
| 2026-05-08 14:43 | 42.52497 | -9.08487 | 35845 ft | 498 kts | 18° |
| 2026-05-08 14:43 | 42.59050 | -9.05420 | 35857 ft | 498 kts | 18° |
| 2026-05-08 14:44 | 42.65610 | -9.02343 | 35861 ft | 499 kts | 18° |
| 2026-05-08 14:44 | 42.72112 | -8.99287 | 35866 ft | 498 kts | 19° |
| 2026-05-08 14:45 | 42.78649 | -8.96207 | 35863 ft | 497 kts | 19° |
| 2026-05-08 14:45 | 42.85175 | -8.93126 | 35865 ft | 496 kts | 19° |
| 2026-05-08 14:46 | 42.91687 | -8.90045 | 35868 ft | 495 kts | 19° |
| 2026-05-08 14:46 | 42.98141 | -8.86984 | 35861 ft | 494 kts | 19° |
| 2026-05-08 14:47 | 43.04627 | -8.83901 | 35859 ft | 493 kts | 19° |
| 2026-05-08 14:47 | 43.11096 | -8.80819 | 35866 ft | 493 kts | 19° |
| 2026-05-08 14:48 | 43.17564 | -8.77731 | 35864 ft | 492 kts | 19° |
| 2026-05-08 14:48 | 43.24037 | -8.74633 | 35872 ft | 492 kts | 19° |
| 2026-05-08 14:49 | 43.30469 | -8.71549 | 35850 ft | 493 kts | 20° |
| 2026-05-08 14:49 | 43.36937 | -8.68440 | 35859 ft | 492 kts | 20° |
| 2026-05-08 14:50 | 43.43395 | -8.65328 | 35872 ft | 493 kts | 20° |
| 2026-05-08 14:50 | 43.49871 | -8.62201 | 35864 ft | 493 kts | 20° |
| 2026-05-08 14:51 | 43.56339 | -8.59071 | 35863 ft | 492 kts | 20° |
| 2026-05-08 14:51 | 43.62786 | -8.55944 | 35871 ft | 491 kts | 20° |
| 2026-05-08 14:52 | 43.72398 | -8.51268 | 35871 ft | 490 kts | 21° |
| 2026-05-08 14:53 | 43.78816 | -8.48138 | 35871 ft | 489 kts | 21° |
| 2026-05-08 14:53 | 43.85235 | -8.44999 | 35877 ft | 489 kts | 21° |
| 2026-05-08 14:54 | 43.91607 | -8.41876 | 35872 ft | 489 kts | 21° |
| 2026-05-08 14:54 | 43.98018 | -8.38727 | 35875 ft | 489 kts | 22° |
| 2026-05-08 14:55 | 44.04427 | -8.35571 | 35874 ft | 489 kts | 22° |
| 2026-05-08 14:55 | 44.10833 | -8.32410 | 35862 ft | 488 kts | 22° |
| 2026-05-08 14:56 | 44.17226 | -8.29250 | 35866 ft | 488 kts | 22° |
| 2026-05-08 14:56 | 44.23580 | -8.26099 | 35874 ft | 488 kts | 22° |
| 2026-05-08 14:57 | 44.29980 | -8.22919 | 35873 ft | 488 kts | 22° |
| 2026-05-08 14:57 | 44.36381 | -8.19731 | 35866 ft | 488 kts | 23° |
| 2026-05-08 14:58 | 44.42785 | -8.16534 | 35875 ft | 489 kts | 23° |
| 2026-05-08 14:58 | 44.49196 | -8.13326 | 35869 ft | 489 kts | 23° |
| 2026-05-08 14:59 | 44.55564 | -8.10132 | 35867 ft | 489 kts | 23° |
| 2026-05-08 14:59 | 44.65175 | -8.05298 | 35869 ft | 489 kts | 23° |
| 2026-05-08 15:00 | 44.71590 | -8.02061 | 35871 ft | 489 kts | 23° |
| 2026-05-08 15:00 | 44.77946 | -7.98847 | 35870 ft | 489 kts | 23° |
| 2026-05-08 15:01 | 44.84358 | -7.95597 | 35866 ft | 489 kts | 23° |
| 2026-05-08 15:01 | 44.90758 | -7.92344 | 35865 ft | 489 kts | 23° |
| 2026-05-08 15:02 | 44.97146 | -7.89091 | 35867 ft | 488 kts | 23° |
| 2026-05-08 15:02 | 45.03628 | -7.86370 | 35875 ft | 490 kts | 17° |
| 2026-05-08 15:03 | 45.10276 | -7.84146 | 35869 ft | 491 kts | 16° |
| 2026-05-08 15:03 | 45.16926 | -7.81937 | 35860 ft | 490 kts | 17° |
| 2026-05-08 15:04 | 45.23548 | -7.79653 | 35864 ft | 489 kts | 17° |
| 2026-05-08 15:04 | 45.30112 | -7.77339 | 35859 ft | 489 kts | 18° |
| 2026-05-08 15:05 | 45.36719 | -7.74995 | 35847 ft | 489 kts | 18° |
| 2026-05-08 15:05 | 45.43323 | -7.72648 | 35865 ft | 489 kts | 18° |
| 2026-05-08 15:06 | 45.49924 | -7.70300 | 35871 ft | 490 kts | 18° |
| 2026-05-08 15:06 | 45.56494 | -7.67959 | 35864 ft | 490 kts | 18° |
| 2026-05-08 15:07 | 45.63107 | -7.65597 | 35863 ft | 490 kts | 18° |
| 2026-05-08 15:07 | 45.69719 | -7.63230 | 35864 ft | 490 kts | 18° |
| 2026-05-08 15:08 | 45.75221 | -7.61255 | 35858 ft | 491 kts | 17° |
| 2026-05-08 15:08 | 45.82919 | -7.58485 | 35863 ft | 491 kts | 17° |
| 2026-05-08 15:09 | 45.89554 | -7.56092 | 35861 ft | 492 kts | 18° |
| 2026-05-08 15:09 | 45.96186 | -7.53693 | 35854 ft | 492 kts | 17° |
| 2026-05-08 15:10 | 46.02824 | -7.51288 | 35851 ft | 491 kts | 17° |
| 2026-05-08 15:10 | 46.08336 | -7.49286 | 35856 ft | 491 kts | 17° |
| 2026-05-08 15:11 | 46.16043 | -7.46478 | 35859 ft | 493 kts | 17° |
| 2026-05-08 15:11 | 46.22699 | -7.44046 | 35851 ft | 494 kts | 17° |
| 2026-05-08 15:12 | 46.28229 | -7.42022 | 35852 ft | 493 kts | 17° |
| 2026-05-08 15:12 | 46.34885 | -7.39581 | 35847 ft | 494 kts | 17° |
| 2026-05-08 15:13 | 46.41559 | -7.37126 | 35859 ft | 495 kts | 17° |
| 2026-05-08 15:13 | 46.48246 | -7.34659 | 35858 ft | 496 kts | 17° |
| 2026-05-08 15:14 | 46.54900 | -7.32200 | 35857 ft | 497 kts | 17° |
| 2026-05-08 15:14 | 46.61595 | -7.29719 | 35858 ft | 497 kts | 17° |
| 2026-05-08 15:15 | 46.68291 | -7.27231 | 35856 ft | 496 kts | 17° |
| 2026-05-08 15:15 | 46.74976 | -7.24741 | 35851 ft | 495 kts | 17° |
| 2026-05-08 15:16 | 46.81607 | -7.22264 | 35869 ft | 495 kts | 17° |
| 2026-05-08 15:16 | 46.88278 | -7.19766 | 35857 ft | 495 kts | 17° |
| 2026-05-08 15:17 | 46.94947 | -7.17263 | 35874 ft | 495 kts | 17° |
| 2026-05-08 15:17 | 47.01600 | -7.14759 | 35877 ft | 493 kts | 17° |
| 2026-05-08 15:18 | 47.08183 | -7.12276 | 35869 ft | 491 kts | 17° |
| 2026-05-08 15:18 | 47.14802 | -7.09772 | 35883 ft | 491 kts | 17° |
| 2026-05-08 15:19 | 47.21410 | -7.07265 | 35891 ft | 490 kts | 17° |
| 2026-05-08 15:19 | 47.28008 | -7.04756 | 35860 ft | 489 kts | 16° |
| 2026-05-08 15:20 | 47.34588 | -7.02248 | 35887 ft | 489 kts | 16° |
| 2026-05-08 15:20 | 47.41127 | -6.99748 | 35895 ft | 489 kts | 16° |
| 2026-05-08 15:21 | 47.47719 | -6.97222 | 35905 ft | 489 kts | 16° |
| 2026-05-08 15:21 | 47.54308 | -6.94690 | 35904 ft | 490 kts | 16° |
| 2026-05-08 15:22 | 47.60917 | -6.92145 | 35906 ft | 490 kts | 16° |
| 2026-05-08 15:22 | 47.67473 | -6.89613 | 35907 ft | 491 kts | 16° |
| 2026-05-08 15:23 | 47.74086 | -6.87052 | 35915 ft | 491 kts | 16° |
| 2026-05-08 15:23 | 47.80701 | -6.84484 | 35920 ft | 491 kts | 16° |
| 2026-05-08 15:24 | 47.87321 | -6.81907 | 35920 ft | 492 kts | 15° |
| 2026-05-08 15:24 | 47.93935 | -6.79326 | 35930 ft | 492 kts | 15° |
| 2026-05-08 15:25 | 48.00393 | -6.76270 | 35927 ft | 489 kts | 27° |
| 2026-05-08 15:25 | 48.06095 | -6.70826 | 35939 ft | 486 kts | 37° |
| 2026-05-08 15:26 | 48.11590 | -6.64910 | 35933 ft | 487 kts | 37° |
| 2026-05-08 15:26 | 48.17102 | -6.59017 | 35938 ft | 487 kts | 37° |
| 2026-05-08 15:27 | 48.22594 | -6.53206 | 35942 ft | 487 kts | 37° |
| 2026-05-08 15:27 | 48.28137 | -6.47354 | 35946 ft | 487 kts | 37° |
| 2026-05-08 15:28 | 48.33683 | -6.41485 | 35935 ft | 487 kts | 37° |
| 2026-05-08 15:28 | 48.39216 | -6.35610 | 35950 ft | 487 kts | 37° |
| 2026-05-08 15:29 | 48.44714 | -6.29755 | 35954 ft | 487 kts | 37° |
| 2026-05-08 15:29 | 48.50247 | -6.23845 | 35957 ft | 488 kts | 37° |
| 2026-05-08 15:30 | 48.55782 | -6.17917 | 35959 ft | 488 kts | 37° |
| 2026-05-08 15:30 | 48.61316 | -6.11975 | 35965 ft | 488 kts | 37° |
| 2026-05-08 15:31 | 48.66812 | -6.06057 | 35957 ft | 488 kts | 36° |
| 2026-05-08 15:31 | 48.72337 | -6.00091 | 35965 ft | 488 kts | 37° |
| 2026-05-08 15:32 | 48.77852 | -5.94120 | 35974 ft | 488 kts | 37° |
| 2026-05-08 15:32 | 48.83371 | -5.88129 | 35975 ft | 488 kts | 37° |
| 2026-05-08 15:33 | 48.88851 | -5.82162 | 35975 ft | 488 kts | 37° |
| 2026-05-08 15:33 | 48.94361 | -5.76147 | 35990 ft | 488 kts | 36° |
| 2026-05-08 15:34 | 48.99877 | -5.70108 | 35966 ft | 489 kts | 36° |
| 2026-05-08 15:34 | 49.05391 | -5.64055 | 35985 ft | 488 kts | 36° |
| 2026-05-08 15:35 | 49.10865 | -5.58029 | 35986 ft | 488 kts | 36° |
| 2026-05-08 15:35 | 49.16368 | -5.51954 | 35991 ft | 489 kts | 36° |
| 2026-05-08 15:36 | 49.21884 | -5.45847 | 35995 ft | 489 kts | 36° |
| 2026-05-08 15:36 | 49.27394 | -5.39730 | 35998 ft | 490 kts | 36° |
| 2026-05-08 15:37 | 49.32912 | -5.33587 | 35992 ft | 490 kts | 36° |
| 2026-05-08 15:37 | 49.38426 | -5.27430 | 36001 ft | 490 kts | 36° |
| 2026-05-08 15:38 | 49.43901 | -5.21300 | 36003 ft | 491 kts | 36° |
| 2026-05-08 15:38 | 49.49415 | -5.15109 | 36006 ft | 491 kts | 36° |
| 2026-05-08 15:39 | 49.54924 | -5.08906 | 36010 ft | 491 kts | 36° |
| 2026-05-08 15:39 | 49.60437 | -5.02681 | 36013 ft | 491 kts | 36° |
| 2026-05-08 15:40 | 49.65908 | -4.96485 | 36023 ft | 491 kts | 36° |
| 2026-05-08 15:40 | 49.71422 | -4.90222 | 36012 ft | 492 kts | 36° |
| 2026-05-08 15:41 | 49.76937 | -4.83940 | 36013 ft | 492 kts | 36° |
| 2026-05-08 15:41 | 49.82452 | -4.77641 | 36022 ft | 493 kts | 36° |
| 2026-05-08 15:42 | 49.87958 | -4.71333 | 36027 ft | 493 kts | 36° |
| 2026-05-08 15:42 | 49.93436 | -4.65039 | 36022 ft | 494 kts | 36° |
| 2026-05-08 15:43 | 49.98953 | -4.58681 | 36023 ft | 494 kts | 36° |
| 2026-05-08 15:43 | 50.04467 | -4.52308 | 36019 ft | 494 kts | 36° |
| 2026-05-08 15:44 | 50.09975 | -4.45925 | 36025 ft | 493 kts | 36° |
| 2026-05-08 15:44 | 50.15435 | -4.39577 | 36031 ft | 494 kts | 36° |
| 2026-05-08 15:45 | 50.20939 | -4.33160 | 36029 ft | 494 kts | 36° |
| 2026-05-08 15:45 | 50.26446 | -4.26721 | 36033 ft | 494 kts | 36° |
| 2026-05-08 15:46 | 50.31938 | -4.20279 | 36033 ft | 494 kts | 36° |
| 2026-05-08 15:46 | 50.37396 | -4.13858 | 36031 ft | 494 kts | 35° |
| 2026-05-08 15:47 | 50.42885 | -4.07381 | 36033 ft | 494 kts | 36° |
| 2026-05-08 15:47 | 50.48361 | -4.00903 | 36031 ft | 493 kts | 36° |
| 2026-05-08 15:48 | 50.54120 | -3.95135 | 36022 ft | 489 kts | 21° |
| 2026-05-08 15:48 | 50.57274 | -3.93148 | 36037 ft | 488 kts | 18° |
| 2026-05-08 15:49 | 50.63631 | -3.89398 | 36039 ft | 488 kts | 18° |
| 2026-05-08 15:49 | 50.69944 | -3.85627 | 36037 ft | 488 kts | 18° |
| 2026-05-08 15:50 | 50.76279 | -3.81746 | 36032 ft | 488 kts | 19° |
| 2026-05-08 15:50 | 50.82601 | -3.77830 | 36049 ft | 488 kts | 18° |
| 2026-05-08 15:51 | 50.88919 | -3.73906 | 36036 ft | 487 kts | 18° |
| 2026-05-08 15:51 | 50.95179 | -3.70011 | 36034 ft | 486 kts | 18° |
| 2026-05-08 15:52 | 51.01471 | -3.66087 | 36040 ft | 485 kts | 18° |
| 2026-05-08 15:52 | 51.07750 | -3.62159 | 36031 ft | 485 kts | 18° |
| 2026-05-08 15:53 | 51.14030 | -3.58218 | 36036 ft | 485 kts | 18° |
| 2026-05-08 15:53 | 51.20257 | -3.54300 | 36035 ft | 485 kts | 18° |
| 2026-05-08 15:54 | 51.26669 | -3.51230 | 36030 ft | 478 kts | 4° |
| 2026-05-08 15:54 | 51.33264 | -3.49987 | 36052 ft | 477 kts | 2° |
| 2026-05-08 15:55 | 51.39868 | -3.48825 | 36046 ft | 478 kts | 2° |
| 2026-05-08 15:55 | 51.49765 | -3.46925 | 36046 ft | 478 kts | 3° |
| 2026-05-08 15:56 | 51.56326 | -3.45620 | 36033 ft | 479 kts | 3° |
| 2026-05-08 15:56 | 51.59645 | -3.44959 | 35641 ft | 481 kts | 2° |
| 2026-05-08 15:56 | 51.62956 | -3.44299 | 35246 ft | 480 kts | 2° |
| 2026-05-08 15:57 | 51.66272 | -3.43637 | 34819 ft | 480 kts | 2° |
| 2026-05-08 15:57 | 51.69582 | -3.42977 | 34410 ft | 481 kts | 2° |
| 2026-05-08 15:57 | 51.72910 | -3.42314 | 33987 ft | 482 kts | 2° |
| 2026-05-08 15:57 | 51.76245 | -3.41648 | 33508 ft | 483 kts | 2° |
| 2026-05-08 15:58 | 51.79543 | -3.40987 | 33037 ft | 483 kts | 2° |
| 2026-05-08 15:58 | 51.82879 | -3.40318 | 32582 ft | 483 kts | 2° |
| 2026-05-08 15:58 | 51.86203 | -3.39649 | 32167 ft | 481 kts | 2° |
| 2026-05-08 15:58 | 51.89525 | -3.38980 | 31721 ft | 481 kts | 2° |
| 2026-05-08 15:59 | 51.92851 | -3.38320 | 31280 ft | 482 kts | 2° |
| 2026-05-08 15:59 | 51.96191 | -3.37881 | 30839 ft | 482 kts | 359° |
| 2026-05-08 15:59 | 51.99547 | -3.37641 | 30399 ft | 483 kts | 358° |
| 2026-05-08 15:59 | 52.02874 | -3.37463 | 29949 ft | 486 kts | 358° |
| 2026-05-08 16:00 | 52.06258 | -3.37268 | 29417 ft | 488 kts | 358° |
| 2026-05-08 16:00 | 52.09655 | -3.37032 | 28926 ft | 489 kts | 359° |
| 2026-05-08 16:00 | 52.13053 | -3.36769 | 28453 ft | 488 kts | 359° |
| 2026-05-08 16:00 | 52.16440 | -3.36508 | 27980 ft | 486 kts | 359° |
| 2026-05-08 16:01 | 52.19785 | -3.36264 | 27487 ft | 478 kts | 359° |
| 2026-05-08 16:01 | 52.23084 | -3.36032 | 27027 ft | 471 kts | 359° |
| 2026-05-08 16:01 | 52.26358 | -3.35805 | 26608 ft | 470 kts | 359° |
| 2026-05-08 16:01 | 52.29571 | -3.35581 | 26130 ft | 454 kts | 359° |
| 2026-05-08 16:02 | 52.32744 | -3.35359 | 25717 ft | 460 kts | 359° |
| 2026-05-08 16:02 | 52.35914 | -3.35140 | 25280 ft | 465 kts | 359° |
| 2026-05-08 16:02 | 52.39131 | -3.34913 | 24829 ft | 460 kts | 360° |
| 2026-05-08 16:02 | 52.42314 | -3.34685 | 24394 ft | 456 kts | 360° |
| 2026-05-08 16:03 | 52.45481 | -3.34459 | 23940 ft | 454 kts | 0° |
| 2026-05-08 16:03 | 52.48634 | -3.34227 | 23502 ft | 453 kts | 0° |
| 2026-05-08 16:03 | 52.51769 | -3.33982 | 22986 ft | 450 kts | 0° |
| 2026-05-08 16:03 | 52.54888 | -3.33735 | 22521 ft | 447 kts | 0° |
| 2026-05-08 16:04 | 52.57981 | -3.33492 | 22080 ft | 443 kts | 0° |
| 2026-05-08 16:04 | 52.61054 | -3.33236 | 21643 ft | 440 kts | 2° |
| 2026-05-08 16:04 | 52.64073 | -3.32493 | 21208 ft | 439 kts | 12° |
| 2026-05-08 16:04 | 52.66923 | -3.30952 | 20797 ft | 435 kts | 20° |
| 2026-05-08 16:05 | 52.69733 | -3.29150 | 20382 ft | 433 kts | 20° |
| 2026-05-08 16:05 | 52.72529 | -3.27338 | 19699 ft | 430 kts | 21° |
| 2026-05-08 16:05 | 52.75271 | -3.25487 | 19208 ft | 423 kts | 22° |
| 2026-05-08 16:06 | 52.80673 | -3.21782 | 18257 ft | 418 kts | 22° |
| 2026-05-08 16:06 | 52.83344 | -3.19949 | 17848 ft | 414 kts | 22° |
| 2026-05-08 16:06 | 52.85992 | -3.18135 | 17440 ft | 410 kts | 22° |
| 2026-05-08 16:06 | 52.88622 | -3.16337 | 17046 ft | 408 kts | 22° |
| 2026-05-08 16:07 | 52.91244 | -3.14546 | 16648 ft | 407 kts | 22° |
| 2026-05-08 16:07 | 52.93852 | -3.12764 | 16244 ft | 405 kts | 22° |
| 2026-05-08 16:07 | 52.96457 | -3.10983 | 15867 ft | 404 kts | 22° |
| 2026-05-08 16:07 | 52.99044 | -3.09212 | 15513 ft | 401 kts | 22° |
| 2026-05-08 16:08 | 53.01612 | -3.07451 | 15137 ft | 398 kts | 22° |
| 2026-05-08 16:08 | 53.04167 | -3.05697 | 14767 ft | 396 kts | 22° |
| 2026-05-08 16:08 | 53.06705 | -3.03953 | 14397 ft | 394 kts | 22° |
| 2026-05-08 16:08 | 53.09231 | -3.02215 | 14037 ft | 393 kts | 22° |
| 2026-05-08 16:09 | 53.11755 | -3.00476 | 13651 ft | 392 kts | 22° |
| 2026-05-08 16:09 | 53.14240 | -2.98762 | 13234 ft | 377 kts | 22° |
| 2026-05-08 16:09 | 53.16601 | -2.97131 | 12833 ft | 358 kts | 22° |
| 2026-05-08 16:09 | 53.18844 | -2.95579 | 12438 ft | 341 kts | 22° |
| 2026-05-08 16:10 | 53.20994 | -2.94091 | 12025 ft | 328 kts | 22° |
| 2026-05-08 16:10 | 53.23057 | -2.92661 | 11638 ft | 316 kts | 22° |
| 2026-05-08 16:10 | 53.25025 | -2.91297 | 11260 ft | 306 kts | 23° |
| 2026-05-08 16:10 | 53.26892 | -2.89684 | 10870 ft | 300 kts | 38° |
| 2026-05-08 16:11 | 53.28464 | -2.87430 | 10522 ft | 298 kts | 44° |
| 2026-05-08 16:11 | 53.29978 | -2.85082 | 10148 ft | 296 kts | 44° |
| 2026-05-08 16:11 | 53.31478 | -2.82737 | 9751 ft | 294 kts | 45° |
| 2026-05-08 16:11 | 53.32959 | -2.80415 | 9437 ft | 289 kts | 45° |
| 2026-05-08 16:12 | 53.34415 | -2.78133 | 9177 ft | 286 kts | 45° |
| 2026-05-08 16:12 | 53.35874 | -2.75847 | 8911 ft | 285 kts | 45° |
| 2026-05-08 16:12 | 53.37327 | -2.73566 | 8654 ft | 288 kts | 45° |
| 2026-05-08 16:12 | 53.38768 | -2.71302 | 8402 ft | 288 kts | 45° |
| 2026-05-08 16:13 | 53.40225 | -2.69011 | 8141 ft | 286 kts | 45° |
| 2026-05-08 16:13 | 53.41675 | -2.66731 | 7886 ft | 285 kts | 45° |
| 2026-05-08 16:13 | 53.43112 | -2.64468 | 7633 ft | 283 kts | 46° |
| 2026-05-08 16:13 | 53.44305 | -2.61881 | 7377 ft | 279 kts | 62° |
| 2026-05-08 16:14 | 53.45230 | -2.59021 | 7164 ft | 278 kts | 64° |
| 2026-05-08 16:14 | 53.46124 | -2.56129 | 7091 ft | 281 kts | 65° |
| 2026-05-08 16:14 | 53.47018 | -2.53224 | 7079 ft | 279 kts | 65° |
| 2026-05-08 16:14 | 53.47906 | -2.50331 | 7054 ft | 280 kts | 65° |
| 2026-05-08 16:15 | 53.48756 | -2.47430 | 6796 ft | 279 kts | 72° |
| 2026-05-08 16:15 | 53.49180 | -2.44287 | 6551 ft | 274 kts | 83° |
| 2026-05-08 16:15 | 53.49449 | -2.41130 | 6299 ft | 272 kts | 84° |
| 2026-05-08 16:15 | 53.49701 | -2.37979 | 6043 ft | 274 kts | 85° |
| 2026-05-08 16:16 | 53.49951 | -2.34780 | 5779 ft | 276 kts | 85° |
| 2026-05-08 16:16 | 53.50198 | -2.31606 | 5507 ft | 271 kts | 85° |
| 2026-05-08 16:16 | 53.50441 | -2.28497 | 5263 ft | 265 kts | 85° |
| 2026-05-08 16:16 | 53.50678 | -2.25491 | 5049 ft | 253 kts | 85° |
| 2026-05-08 16:17 | 53.50903 | -2.22660 | 4804 ft | 244 kts | 85° |
| 2026-05-08 16:17 | 53.51054 | -2.20778 | 4685 ft | 237 kts | 85° |
| 2026-05-08 16:17 | 53.51341 | -2.17227 | 4426 ft | 226 kts | 85° |
| 2026-05-08 16:17 | 53.51550 | -2.14654 | 4251 ft | 219 kts | 85° |
| 2026-05-08 16:18 | 53.51751 | -2.12171 | 4111 ft | 210 kts | 85° |
| 2026-05-08 16:18 | 53.51845 | -2.09761 | 3972 ft | 205 kts | 98° |
| 2026-05-08 16:18 | 53.51456 | -2.07478 | 3855 ft | 204 kts | 119° |
| 2026-05-08 16:18 | 53.50608 | -2.05605 | 3728 ft | 201 kts | 140° |
| 2026-05-08 16:19 | 53.49439 | -2.04403 | 3609 ft | 200 kts | 160° |
| 2026-05-08 16:19 | 53.48085 | -2.03949 | 3551 ft | 196 kts | 176° |
| 2026-05-08 16:19 | 53.46835 | -2.04465 | 3497 ft | 187 kts | 215° |
| 2026-05-08 16:19 | 53.45923 | -2.06046 | 3307 ft | 189 kts | 225° |
| 2026-05-08 16:20 | 53.45053 | -2.07664 | 3063 ft | 184 kts | 226° |
| 2026-05-08 16:20 | 53.44246 | -2.09271 | 2811 ft | 177 kts | 228° |
| 2026-05-08 16:20 | 53.43475 | -2.10848 | 2568 ft | 173 kts | 228° |
| 2026-05-08 16:20 | 53.42723 | -2.12392 | 2344 ft | 169 kts | 229° |
| 2026-05-08 16:21 | 53.41987 | -2.13903 | 2112 ft | 166 kts | 229° |
| 2026-05-08 16:21 | 53.41278 | -2.15359 | 1890 ft | 162 kts | 230° |
| 2026-05-08 16:21 | 53.40581 | -2.16792 | 1669 ft | 154 kts | 229° |
| 2026-05-08 16:21 | 53.39911 | -2.18169 | 1470 ft | 154 kts | 230° |
| 2026-05-08 16:22 | 53.39240 | -2.19550 | 1266 ft | 152 kts | 230° |
| 2026-05-08 16:22 | 53.38576 | -2.20908 | 1050 ft | 149 kts | 229° |
| 2026-05-08 16:22 | 53.37910 | -2.22245 | 855 ft | 149 kts | 230° |
| 2026-05-08 16:22 | 53.37264 | -2.23599 | 679 ft | 149 kts | 231° |
| 2026-05-08 16:23 | 53.36609 | -2.24947 | 461 ft | 149 kts | 230° |
| 2026-05-08 16:23 | 53.35963 | -2.26280 | 278 ft | 143 kts | 231° |
| 2026-05-08 16:23 | 53.35422 | -2.27397 | 244 ft | 95 kts | 231° |
| 2026-05-08 16:23 | 53.35142 | -2.27976 | 234 ft | 44 kts | 231° |
| 2026-05-08 16:24 | 53.34999 | -2.28305 | 230 ft | 32 kts | 242° |
| 2026-05-08 16:24 | 53.34952 | -2.28578 | 228 ft | 25 kts | 258° |
| 2026-05-08 16:24 | 53.34973 | -2.28739 | 227 ft | 15 kts | 343° |
| 2026-05-08 16:24 | 53.35063 | -2.28648 | 228 ft | 17 kts | 51° |
| 2026-05-08 16:25 | 53.35132 | -2.28507 | 226 ft | 16 kts | 51° |
| 2026-05-08 16:25 | 53.35197 | -2.28371 | 229 ft | 6 kts | 51° |
| 2026-05-08 16:25 | 53.35209 | -2.28347 | 231 ft | 2 kts | 51° |
| 2026-05-08 16:25 | 53.35220 | -2.28324 | 231 ft | 3 kts | 51° |
| 2026-05-08 16:26 | 53.35255 | -2.28251 | 231 ft | 14 kts | 50° |
| 2026-05-08 16:26 | 53.35336 | -2.28113 | 235 ft | 17 kts | 43° |
| 2026-05-08 16:26 | 53.35419 | -2.27980 | 236 ft | 16 kts | 44° |
| 2026-05-08 16:26 | 53.35459 | -2.27817 | 239 ft | 16 kts | 86° |
| 2026-05-08 16:27 | 53.35522 | -2.27657 | 239 ft | 18 kts | 51° |
| 2026-05-08 16:27 | 53.35598 | -2.27500 | 244 ft | 17 kts | 51° |
| 2026-05-08 16:27 | 53.35671 | -2.27348 | 253 ft | 16 kts | 51° |
| 2026-05-08 16:27 | 53.35747 | -2.27190 | 254 ft | 19 kts | 51° |
| 2026-05-08 16:28 | 53.35829 | -2.27007 | 255 ft | 21 kts | 64° |
| 2026-05-08 16:28 | 53.35887 | -2.26864 | 255 ft | 8 kts | 50° |
| 2026-05-08 16:28 | 53.35922 | -2.26827 | 255 ft | 4 kts | 359° |
| 2026-05-08 16:28 | 53.35936 | -2.26838 | 255 ft | 1 kts | 320° |
| 2026-05-08 16:29 | 53.35951 | -2.26853 | 254 ft | 4 kts | 334° |
| 2026-05-08 16:29 | 53.35987 | -2.26887 | 254 ft | 7 kts | 320° |
| 2026-05-08 16:29 | 53.36010 | -2.26927 | 254 ft | 1 kts | 313° |
| 2026-05-08 16:29 | 53.36011 | -2.26928 | 254 ft | 0 kts | 313° |